createdAt,value
2022-10-22T00:00:09.761Z,997.12
2022-10-22T00:00:35.404Z,997.02
2022-10-22T00:00:56.628Z,997.02
2022-10-22T00:01:29.309Z,997.02
2022-10-22T00:02:00.533Z,997.12
2022-10-22T00:02:32.769Z,997.12
2022-10-22T00:03:04.849Z,996.92
2022-10-22T00:03:34.892Z,997.12
2022-10-22T00:03:53.341Z,997.12
2022-10-22T00:04:24.683Z,997.12
2022-10-22T00:04:41.832Z,997.02
2022-10-22T00:05:12.788Z,997.02
2022-10-22T00:05:34.764Z,996.92
2022-10-22T00:06:01.549Z,996.92
2022-10-22T00:06:32.570Z,996.92
2022-10-22T00:07:04.715Z,997.22
2022-10-22T00:07:34.808Z,997.12
2022-10-22T00:07:52.529Z,997.12
2022-10-22T00:08:25.365Z,997.12
2022-10-22T00:08:42.684Z,997.02
2022-10-22T00:09:12.687Z,997.02
2022-10-22T00:09:34.797Z,996.92
2022-10-22T00:10:00.667Z,996.92
2022-10-22T00:10:36.098Z,996.92
2022-10-22T00:11:04.726Z,996.92
2022-10-22T00:11:34.913Z,997.12
2022-10-22T00:11:52.518Z,997.12
2022-10-22T00:12:24.504Z,997.12
2022-10-22T00:12:41.776Z,997.02
2022-10-22T00:13:29.223Z,997.02
2022-10-22T00:14:00.517Z,997.12
2022-10-22T00:14:32.523Z,997.12
2022-10-22T00:15:04.893Z,997.12
2022-10-22T00:15:34.839Z,997.12
2022-10-22T00:15:53.258Z,997.12
2022-10-22T00:16:24.523Z,997.12
2022-10-22T00:16:41.606Z,996.92
2022-10-22T00:17:12.685Z,996.92
2022-10-22T00:17:35.170Z,996.92
2022-10-22T00:18:01.163Z,996.92
2022-10-22T00:18:32.535Z,996.92
2022-10-22T00:19:04.685Z,997.22
2022-10-22T00:19:34.758Z,997.12
2022-10-22T00:19:52.632Z,997.12
2022-10-22T00:20:25.432Z,997.12
2022-10-22T00:20:42.491Z,997.12
2022-10-22T00:21:12.642Z,997.12
2022-10-22T00:21:34.892Z,997.12
2022-10-22T00:22:01.735Z,997.12
2022-10-22T00:22:32.623Z,997.12
2022-10-22T00:23:04.480Z,997.32
2022-10-22T00:23:34.781Z,997.12
2022-10-22T00:24:25.175Z,997.12
2022-10-22T00:24:42.370Z,997.12
2022-10-22T00:25:12.575Z,997.12
2022-10-22T00:25:35.231Z,997.12
2022-10-22T00:26:00.704Z,997.12
2022-10-22T00:26:33.201Z,997.12
2022-10-22T00:27:04.470Z,997.22
2022-10-22T00:27:35.165Z,997.32
2022-10-22T00:27:53.252Z,997.32
2022-10-22T00:28:24.657Z,997.32
2022-10-22T00:28:41.792Z,997.22
2022-10-22T00:29:13.319Z,997.22
2022-10-22T00:29:34.920Z,997.22
2022-10-22T00:30:01.011Z,997.22
2022-10-22T00:30:32.691Z,997.22
2022-10-22T00:31:04.520Z,997.12
2022-10-22T00:31:35.340Z,997.02
2022-10-22T00:31:52.812Z,997.02
2022-10-22T00:32:25.189Z,997.02
2022-10-22T00:32:42.788Z,997.12
2022-10-22T00:33:12.530Z,997.12
2022-10-22T00:33:34.751Z,997.22
2022-10-22T00:34:01.694Z,997.22
2022-10-22T00:34:32.681Z,997.22
2022-10-22T00:35:05.319Z,997.22
2022-10-22T00:35:34.880Z,997.02
2022-10-22T00:35:52.563Z,997.02
2022-10-22T00:36:25.433Z,997.02
2022-10-22T00:36:42.320Z,997.22
2022-10-22T00:37:12.671Z,997.22
2022-10-22T00:37:34.756Z,997.02
2022-10-22T00:38:01.350Z,997.02
2022-10-22T00:38:32.651Z,997.02
2022-10-22T00:39:04.718Z,997.22
2022-10-22T00:39:35.000Z,997.43
2022-10-22T00:39:52.438Z,997.43
2022-10-22T00:40:25.430Z,997.43
2022-10-22T00:40:42.471Z,996.92
2022-10-22T00:41:12.626Z,996.92
2022-10-22T00:41:34.800Z,997.22
2022-10-22T00:42:01.284Z,997.22
2022-10-22T00:42:32.517Z,997.22
2022-10-22T00:43:04.718Z,997.22
2022-10-22T00:43:34.917Z,997.02
2022-10-22T00:43:52.514Z,997.02
2022-10-22T00:44:25.336Z,997.02
2022-10-22T00:44:42.445Z,996.92
2022-10-22T00:45:12.846Z,996.92
2022-10-22T00:45:34.737Z,996.92
2022-10-22T00:46:00.560Z,996.92
2022-10-22T00:46:33.367Z,996.92
2022-10-22T00:47:04.827Z,996.92
2022-10-22T00:47:35.078Z,996.92
2022-10-22T00:47:53.160Z,996.92
2022-10-22T00:48:24.443Z,996.92
2022-10-22T00:48:41.653Z,997.02
2022-10-22T00:49:13.457Z,997.02
2022-10-22T00:49:34.929Z,997.02
2022-10-22T00:50:00.740Z,997.02
2022-10-22T00:50:33.326Z,997.02
2022-10-22T00:51:04.469Z,997.02
2022-10-22T00:51:35.602Z,997.02
2022-10-22T00:52:08.707Z,997.02
2022-10-22T00:52:34.757Z,997.12
2022-10-22T00:52:57.277Z,997.12
2022-10-22T00:53:28.511Z,997.12
2022-10-22T00:54:01.209Z,996.92
2022-10-22T00:54:32.734Z,996.92
2022-10-22T00:55:04.641Z,997.12
2022-10-22T00:55:34.823Z,996.92
2022-10-22T00:55:52.719Z,996.92
2022-10-22T00:56:25.055Z,996.92
2022-10-22T00:56:42.178Z,997.22
2022-10-22T00:57:12.537Z,997.22
2022-10-22T00:57:34.735Z,996.82
2022-10-22T00:58:00.643Z,996.82
2022-10-22T00:58:33.210Z,996.82
2022-10-22T00:59:04.572Z,997.02
2022-10-22T00:59:36.163Z,997.12
2022-10-22T00:59:52.522Z,997.12
2022-10-22T01:00:24.842Z,997.12
2022-10-22T01:00:42.321Z,996.82
2022-10-22T01:01:12.648Z,996.82
2022-10-22T01:01:34.724Z,996.82
2022-10-22T01:02:01.274Z,996.82
2022-10-22T01:02:32.606Z,996.82
2022-10-22T01:03:05.145Z,996.82
2022-10-22T01:03:34.840Z,996.92
2022-10-22T01:03:52.504Z,996.92
2022-10-22T01:04:24.450Z,996.92
2022-10-22T01:04:41.653Z,997.12
2022-10-22T01:05:13.577Z,997.12
2022-10-22T01:05:35.333Z,997.02
2022-10-22T01:06:00.531Z,997.02
2022-10-22T01:06:33.368Z,997.02
2022-10-22T01:07:04.570Z,996.82
2022-10-22T01:07:35.252Z,997.12
2022-10-22T01:07:53.056Z,997.12
2022-10-22T01:08:24.590Z,997.12
2022-10-22T01:08:41.607Z,996.82
2022-10-22T01:09:12.630Z,996.82
2022-10-22T01:09:34.997Z,996.92
2022-10-22T01:10:01.339Z,996.92
2022-10-22T01:10:32.524Z,996.92
2022-10-22T01:11:04.472Z,997.02
2022-10-22T01:11:34.732Z,996.92
2022-10-22T01:11:52.640Z,996.92
2022-10-22T01:12:25.174Z,996.92
2022-10-22T01:12:42.820Z,997.02
2022-10-22T01:13:12.510Z,997.02
2022-10-22T01:13:34.887Z,997.02
2022-10-22T01:14:01.680Z,997.02
2022-10-22T01:14:32.580Z,997.02
2022-10-22T01:15:05.637Z,997.02
2022-10-22T01:15:34.778Z,997.02
2022-10-22T01:15:52.737Z,997.02
2022-10-22T01:16:25.257Z,997.02
2022-10-22T01:16:42.255Z,996.92
2022-10-22T01:17:12.558Z,996.92
2022-10-22T01:17:34.935Z,996.92
2022-10-22T01:18:00.738Z,996.92
2022-10-22T01:18:33.202Z,996.92
2022-10-22T01:19:04.564Z,997.02
2022-10-22T01:19:35.423Z,996.92
2022-10-22T01:20:08.782Z,996.92
2022-10-22T01:20:34.750Z,997.02
2022-10-22T01:20:57.306Z,997.02
2022-10-22T01:21:28.909Z,997.02
2022-10-22T01:22:00.526Z,997.02
2022-10-22T01:22:32.687Z,997.02
2022-10-22T01:23:04.668Z,997.02
2022-10-22T01:23:35.185Z,997.02
2022-10-22T01:23:52.430Z,997.02
2022-10-22T01:24:25.339Z,997.02
2022-10-22T01:24:42.515Z,997.12
2022-10-22T01:25:12.753Z,997.12
2022-10-22T01:25:34.711Z,996.92
2022-10-22T01:26:01.641Z,996.92
2022-10-22T01:26:32.582Z,996.92
2022-10-22T01:27:04.657Z,997.02
2022-10-22T01:27:34.807Z,996.92
2022-10-22T01:27:52.542Z,996.92
2022-10-22T01:28:25.364Z,996.92
2022-10-22T01:28:42.550Z,997.02
2022-10-22T01:29:12.608Z,997.02
2022-10-22T01:29:34.983Z,996.92
2022-10-22T01:30:00.886Z,996.92
2022-10-22T01:30:33.271Z,996.92
2022-10-22T01:31:04.458Z,997.02
2022-10-22T01:31:34.813Z,997.02
2022-10-22T01:31:53.315Z,997.02
2022-10-22T01:32:24.509Z,997.02
2022-10-22T01:32:41.610Z,996.92
2022-10-22T01:33:13.352Z,996.92
2022-10-22T01:33:35.011Z,997.02
2022-10-22T01:34:00.891Z,997.02
2022-10-22T01:34:32.501Z,997.02
2022-10-22T01:35:04.630Z,996.82
2022-10-22T01:35:34.811Z,997.12
2022-10-22T01:35:52.702Z,997.12
2022-10-22T01:36:25.154Z,997.12
2022-10-22T01:36:42.289Z,996.92
2022-10-22T01:37:12.485Z,996.92
2022-10-22T01:37:34.958Z,996.82
2022-10-22T01:38:01.160Z,996.82
2022-10-22T01:38:32.618Z,996.82
2022-10-22T01:39:05.368Z,997.02
2022-10-22T01:39:34.740Z,996.92
2022-10-22T01:39:52.608Z,996.92
2022-10-22T01:40:25.291Z,996.92
2022-10-22T01:40:42.424Z,997.02
2022-10-22T01:41:12.674Z,997.02
2022-10-22T01:41:34.886Z,997.12
2022-10-22T01:42:01.170Z,997.12
2022-10-22T01:42:32.722Z,997.12
2022-10-22T01:43:04.550Z,996.82
2022-10-22T01:43:35.102Z,996.92
2022-10-22T01:43:52.434Z,996.92
2022-10-22T01:44:25.205Z,996.92
2022-10-22T01:44:42.225Z,996.92
2022-10-22T01:45:12.643Z,996.92
2022-10-22T01:45:34.775Z,996.92
2022-10-22T01:46:01.301Z,996.92
2022-10-22T01:46:32.619Z,996.92
2022-10-22T01:47:05.256Z,997.22
2022-10-22T01:47:34.922Z,996.92
2022-10-22T01:47:52.500Z,996.92
2022-10-22T01:48:25.409Z,996.92
2022-10-22T01:48:42.384Z,996.82
2022-10-22T01:49:12.557Z,996.82
2022-10-22T01:49:34.719Z,997.12
2022-10-22T01:50:16.797Z,997.12
2022-10-22T01:50:35.562Z,996.92
2022-10-22T01:51:04.670Z,996.92
2022-10-22T01:51:34.779Z,997.02
2022-10-22T01:51:52.575Z,997.02
2022-10-22T01:52:24.633Z,997.02
2022-10-22T01:52:41.762Z,996.82
2022-10-22T01:53:13.190Z,996.82
2022-10-22T01:53:34.815Z,996.92
2022-10-22T01:54:00.527Z,996.92
2022-10-22T01:54:32.692Z,996.92
2022-10-22T01:55:04.624Z,996.82
2022-10-22T01:55:34.890Z,996.92
2022-10-22T01:55:52.795Z,996.92
2022-10-22T01:56:25.059Z,996.92
2022-10-22T01:56:42.237Z,996.71
2022-10-22T01:57:12.632Z,996.71
2022-10-22T01:57:34.784Z,996.92
2022-10-22T01:58:01.464Z,996.92
2022-10-22T01:58:32.721Z,996.92
2022-10-22T01:59:04.682Z,997.02
2022-10-22T01:59:35.226Z,996.92
2022-10-22T01:59:52.440Z,996.92
2022-10-22T02:00:25.890Z,996.92
2022-10-22T02:00:42.619Z,996.92
2022-10-22T02:01:12.631Z,996.92
2022-10-22T02:01:34.822Z,996.82
2022-10-22T02:02:00.490Z,996.82
2022-10-22T02:02:33.360Z,996.82
2022-10-22T02:03:04.643Z,996.82
2022-10-22T02:03:34.818Z,996.92
2022-10-22T02:03:53.283Z,996.92
2022-10-22T02:04:24.417Z,996.92
2022-10-22T02:04:41.566Z,997.02
2022-10-22T02:05:13.527Z,997.02
2022-10-22T02:05:34.925Z,996.82
2022-10-22T02:06:00.521Z,996.82
2022-10-22T02:06:32.455Z,996.82
2022-10-22T02:07:04.459Z,996.82
2022-10-22T02:07:34.759Z,996.92
2022-10-22T02:07:52.565Z,996.92
2022-10-22T02:08:25.173Z,996.92
2022-10-22T02:08:42.378Z,997.02
2022-10-22T02:09:12.505Z,997.02
2022-10-22T02:09:34.953Z,996.92
2022-10-22T02:10:17.354Z,996.92
2022-10-22T02:10:34.911Z,996.92
2022-10-22T02:11:04.442Z,996.92
2022-10-22T02:11:34.750Z,997.02
2022-10-22T02:11:53.194Z,997.02
2022-10-22T02:12:24.721Z,997.02
2022-10-22T02:12:42.277Z,996.92
2022-10-22T02:13:13.313Z,996.92
2022-10-22T02:13:35.186Z,996.92
2022-10-22T02:14:00.637Z,996.92
2022-10-22T02:14:33.148Z,996.92
2022-10-22T02:15:04.584Z,997.12
2022-10-22T02:15:34.752Z,997.02
2022-10-22T02:15:52.798Z,997.02
2022-10-22T02:16:24.618Z,997.02
2022-10-22T02:16:41.734Z,996.92
2022-10-22T02:17:13.234Z,996.92
2022-10-22T02:17:34.742Z,996.92
2022-10-22T02:18:00.532Z,996.92
2022-10-22T02:18:36.340Z,996.92
2022-10-22T02:19:04.424Z,996.82
2022-10-22T02:19:35.418Z,996.82
2022-10-22T02:20:08.710Z,996.82
2022-10-22T02:20:34.730Z,996.92
2022-10-22T02:20:56.686Z,996.92
2022-10-22T02:21:28.480Z,996.92
2022-10-22T02:22:01.640Z,996.92
2022-10-22T02:22:32.579Z,996.92
2022-10-22T02:23:04.628Z,996.82
2022-10-22T02:23:34.909Z,996.92
2022-10-22T02:23:52.398Z,996.92
2022-10-22T02:24:25.288Z,996.92
2022-10-22T02:24:42.673Z,996.82
2022-10-22T02:25:12.915Z,996.82
2022-10-22T02:25:34.817Z,997.02
2022-10-22T02:26:01.353Z,997.02
2022-10-22T02:26:32.426Z,997.02
2022-10-22T02:27:05.400Z,997.02
2022-10-22T02:27:35.420Z,996.92
2022-10-22T02:27:52.400Z,996.92
2022-10-22T02:28:25.272Z,996.92
2022-10-22T02:28:42.465Z,996.82
2022-10-22T02:29:12.619Z,996.82
2022-10-22T02:29:34.823Z,996.82
2022-10-22T02:30:01.738Z,996.82
2022-10-22T02:30:32.496Z,996.82
2022-10-22T02:31:05.163Z,996.82
2022-10-22T02:31:34.841Z,996.82
2022-10-22T02:31:52.408Z,996.82
2022-10-22T02:32:24.428Z,996.82
2022-10-22T02:32:42.777Z,997.12
2022-10-22T02:33:12.615Z,997.12
2022-10-22T02:33:35.028Z,997.02
2022-10-22T02:34:01.890Z,997.02
2022-10-22T02:34:32.419Z,997.02
2022-10-22T02:35:05.756Z,996.92
2022-10-22T02:35:34.776Z,996.92
2022-10-22T02:35:52.779Z,996.92
2022-10-22T02:36:25.317Z,996.92
2022-10-22T02:36:45.498Z,996.92
2022-10-22T02:37:12.479Z,996.92
2022-10-22T02:37:36.020Z,997.02
2022-10-22T02:38:01.143Z,997.02
2022-10-22T02:38:32.422Z,997.02
2022-10-22T02:39:05.500Z,996.92
2022-10-22T02:39:35.093Z,996.82
2022-10-22T02:39:52.649Z,996.82
2022-10-22T02:40:25.329Z,996.82
2022-10-22T02:40:42.342Z,996.82
2022-10-22T02:41:12.425Z,996.82
2022-10-22T02:41:34.957Z,997.02
2022-10-22T02:42:00.602Z,997.02
2022-10-22T02:42:33.134Z,997.02
2022-10-22T02:43:04.418Z,997.02
2022-10-22T02:43:34.797Z,996.71
2022-10-22T02:43:53.564Z,996.71
2022-10-22T02:44:24.634Z,996.71
2022-10-22T02:44:41.665Z,997.02
2022-10-22T02:45:13.543Z,997.02
2022-10-22T02:45:34.890Z,997.02
2022-10-22T02:46:00.581Z,997.02
2022-10-22T02:46:33.054Z,997.02
2022-10-22T02:47:04.453Z,997.02
2022-10-22T02:47:34.753Z,996.92
2022-10-22T02:47:53.510Z,996.92
2022-10-22T02:48:24.601Z,996.92
2022-10-22T02:48:41.745Z,996.92
2022-10-22T02:49:13.233Z,996.92
2022-10-22T02:49:35.747Z,996.92
2022-10-22T02:50:00.782Z,996.92
2022-10-22T02:50:33.158Z,996.92
2022-10-22T02:51:04.388Z,997.02
2022-10-22T02:51:35.434Z,996.92
2022-10-22T02:52:08.544Z,996.92
2022-10-22T02:52:34.775Z,996.92
2022-10-22T02:52:57.989Z,996.92
2022-10-22T02:53:28.462Z,996.92
2022-10-22T02:54:00.437Z,997.02
2022-10-22T02:54:32.579Z,997.02
2022-10-22T02:55:04.772Z,996.92
2022-10-22T02:55:34.942Z,996.92
2022-10-22T02:55:52.552Z,996.92
2022-10-22T02:56:25.002Z,996.92
2022-10-22T02:56:42.135Z,997.12
2022-10-22T02:57:12.636Z,997.12
2022-10-22T02:57:34.758Z,997.12
2022-10-22T02:58:00.406Z,997.12
2022-10-22T02:58:33.302Z,997.12
2022-10-22T02:59:04.581Z,997.02
2022-10-22T02:59:35.141Z,996.82
2022-10-22T02:59:53.254Z,996.82
2022-10-22T03:00:24.650Z,996.82
2022-10-22T03:00:41.746Z,997.02
2022-10-22T03:01:15.353Z,997.02
2022-10-22T03:01:34.800Z,997.02
2022-10-22T03:02:01.243Z,997.02
2022-10-22T03:02:32.463Z,997.02
2022-10-22T03:03:04.641Z,997.02
2022-10-22T03:03:34.741Z,996.92
2022-10-22T03:03:52.408Z,996.92
2022-10-22T03:04:25.267Z,996.92
2022-10-22T03:04:56.461Z,997.02
2022-10-22T03:05:29.252Z,997.02
2022-10-22T03:06:00.597Z,997.02
2022-10-22T03:06:33.280Z,997.02
2022-10-22T03:07:04.445Z,997.12
2022-10-22T03:07:36.016Z,996.82
2022-10-22T03:07:52.619Z,996.82
2022-10-22T03:08:24.470Z,996.82
2022-10-22T03:08:42.705Z,997.02
2022-10-22T03:09:12.396Z,997.02
2022-10-22T03:09:34.889Z,997.22
2022-10-22T03:10:00.837Z,997.22
2022-10-22T03:10:32.447Z,997.22
2022-10-22T03:11:05.359Z,997.22
2022-10-22T03:11:34.740Z,997.12
2022-10-22T03:11:52.580Z,997.12
2022-10-22T03:12:24.578Z,997.12
2022-10-22T03:12:41.724Z,997.22
2022-10-22T03:13:13.280Z,997.22
2022-10-22T03:13:35.597Z,997.22
2022-10-22T03:14:00.612Z,997.22
2022-10-22T03:14:33.053Z,997.22
2022-10-22T03:15:04.611Z,997.32
2022-10-22T03:15:35.470Z,997.12
2022-10-22T03:16:08.624Z,997.12
2022-10-22T03:16:34.792Z,997.22
2022-10-22T03:16:57.092Z,997.22
2022-10-22T03:17:28.430Z,997.22
2022-10-22T03:18:00.576Z,997.22
2022-10-22T03:18:32.841Z,997.22
2022-10-22T03:19:04.466Z,997.02
2022-10-22T03:19:34.884Z,997.12
2022-10-22T03:19:52.511Z,997.12
2022-10-22T03:20:25.272Z,997.12
2022-10-22T03:20:42.279Z,997.22
2022-10-22T03:21:12.400Z,997.22
2022-10-22T03:21:34.779Z,997.12
2022-10-22T03:22:00.485Z,997.12
2022-10-22T03:22:33.112Z,997.12
2022-10-22T03:23:04.664Z,997.22
2022-10-22T03:23:35.429Z,997.02
2022-10-22T03:24:09.353Z,997.02
2022-10-22T03:24:34.948Z,997.12
2022-10-22T03:24:56.627Z,997.12
2022-10-22T03:25:28.598Z,997.12
2022-10-22T03:26:00.493Z,997.12
2022-10-22T03:26:32.607Z,997.12
2022-10-22T03:27:04.623Z,997.22
2022-10-22T03:27:35.164Z,997.12
2022-10-22T03:27:52.402Z,997.12
2022-10-22T03:28:25.133Z,997.12
2022-10-22T03:28:42.214Z,997.22
2022-10-22T03:29:12.481Z,997.22
2022-10-22T03:29:34.930Z,997.32
2022-10-22T03:30:00.736Z,997.32
2022-10-22T03:30:33.098Z,997.32
2022-10-22T03:31:04.448Z,997.02
2022-10-22T03:31:34.768Z,997.12
2022-10-22T03:31:53.400Z,997.12
2022-10-22T03:32:24.606Z,997.12
2022-10-22T03:32:41.770Z,997.32
2022-10-22T03:33:13.263Z,997.32
2022-10-22T03:33:34.744Z,997.32
2022-10-22T03:34:00.650Z,997.32
2022-10-22T03:34:33.948Z,997.32
2022-10-22T03:35:04.608Z,997.22
2022-10-22T03:35:36.663Z,997.22
2022-10-22T03:36:08.888Z,997.22
2022-10-22T03:36:35.376Z,997.43
2022-10-22T03:36:57.157Z,997.43
2022-10-22T03:37:28.421Z,997.43
2022-10-22T03:38:01.340Z,997.02
2022-10-22T03:38:32.877Z,997.02
2022-10-22T03:39:05.264Z,997.22
2022-10-22T03:39:35.731Z,997.22
2022-10-22T03:39:52.402Z,997.22
2022-10-22T03:40:25.556Z,997.22
2022-10-22T03:40:42.449Z,997.32
2022-10-22T03:41:12.595Z,997.32
2022-10-22T03:41:34.837Z,997.32
2022-10-22T03:42:01.180Z,997.32
2022-10-22T03:42:32.442Z,997.32
2022-10-22T03:43:04.537Z,997.22
2022-10-22T03:43:34.750Z,997.43
2022-10-22T03:43:52.502Z,997.43
2022-10-22T03:44:25.222Z,997.43
2022-10-22T03:44:42.310Z,997.32
2022-10-22T03:45:12.670Z,997.32
2022-10-22T03:45:35.055Z,997.43
2022-10-22T03:46:01.590Z,997.43
2022-10-22T03:46:32.553Z,997.43
2022-10-22T03:47:04.381Z,997.12
2022-10-22T03:47:34.749Z,997.43
2022-10-22T03:47:52.593Z,997.43
2022-10-22T03:48:25.165Z,997.43
2022-10-22T03:48:42.258Z,997.53
2022-10-22T03:49:12.457Z,997.53
2022-10-22T03:49:34.843Z,997.43
2022-10-22T03:50:01.610Z,997.43
2022-10-22T03:50:32.547Z,997.43
2022-10-22T03:51:05.391Z,997.53
2022-10-22T03:51:35.345Z,997.32
2022-10-22T03:52:08.568Z,997.32
2022-10-22T03:52:34.751Z,997.32
2022-10-22T03:52:56.398Z,997.32
2022-10-22T03:53:29.304Z,997.32
2022-10-22T03:54:00.488Z,997.43
2022-10-22T03:54:32.571Z,997.43
2022-10-22T03:55:04.725Z,997.32
2022-10-22T03:55:35.291Z,997.43
2022-10-22T03:55:53.425Z,997.43
2022-10-22T03:56:24.562Z,997.43
2022-10-22T03:56:41.755Z,997.53
2022-10-22T03:57:13.280Z,997.53
2022-10-22T03:57:34.751Z,997.53
2022-10-22T03:58:00.490Z,997.53
2022-10-22T03:58:32.500Z,997.53
2022-10-22T03:59:04.709Z,997.63
2022-10-22T03:59:35.133Z,997.43
2022-10-22T03:59:52.437Z,997.43
2022-10-22T04:00:25.403Z,997.43
2022-10-22T04:00:42.469Z,997.63
2022-10-22T04:01:12.818Z,997.63
2022-10-22T04:01:34.956Z,997.53
2022-10-22T04:02:00.381Z,997.53
2022-10-22T04:02:33.226Z,997.53
2022-10-22T04:03:04.573Z,997.32
2022-10-22T04:03:34.889Z,997.53
2022-10-22T04:03:53.303Z,997.53
2022-10-22T04:04:24.453Z,997.53
2022-10-22T04:04:41.656Z,997.53
2022-10-22T04:05:34.731Z,997.43
2022-10-22T04:06:01.351Z,997.43
2022-10-22T04:06:32.430Z,997.43
2022-10-22T04:07:05.389Z,997.43
2022-10-22T04:07:35.235Z,997.63
2022-10-22T04:07:52.446Z,997.63
2022-10-22T04:08:25.581Z,997.63
2022-10-22T04:08:42.572Z,997.32
2022-10-22T04:09:12.659Z,997.32
2022-10-22T04:09:34.961Z,997.53
2022-10-22T04:10:01.374Z,997.53
2022-10-22T04:10:32.387Z,997.53
2022-10-22T04:11:04.649Z,997.53
2022-10-22T04:11:34.735Z,997.53
2022-10-22T04:11:52.517Z,997.53
2022-10-22T04:12:25.291Z,997.53
2022-10-22T04:12:42.391Z,997.63
2022-10-22T04:13:12.560Z,997.63
2022-10-22T04:13:34.919Z,997.73
2022-10-22T04:14:01.234Z,997.73
2022-10-22T04:14:32.411Z,997.73
2022-10-22T04:15:04.604Z,997.63
2022-10-22T04:15:34.791Z,997.63
2022-10-22T04:15:52.859Z,997.63
2022-10-22T04:16:27.576Z,997.63
2022-10-22T04:16:42.428Z,997.53
2022-10-22T04:17:12.474Z,997.53
2022-10-22T04:17:35.289Z,997.73
2022-10-22T04:18:01.257Z,997.73
2022-10-22T04:18:32.884Z,997.73
2022-10-22T04:19:04.387Z,997.73
2022-10-22T04:19:35.078Z,997.83
2022-10-22T04:19:52.560Z,997.83
2022-10-22T04:20:25.370Z,997.83
2022-10-22T04:20:42.266Z,997.73
2022-10-22T04:21:12.395Z,997.73
2022-10-22T04:21:35.173Z,997.73
2022-10-22T04:22:01.602Z,997.73
2022-10-22T04:22:32.529Z,997.73
2022-10-22T04:23:04.362Z,997.93
2022-10-22T04:23:35.273Z,997.83
2022-10-22T04:23:52.525Z,997.83
2022-10-22T04:24:25.101Z,997.83
2022-10-22T04:24:43.140Z,997.73
2022-10-22T04:25:12.477Z,997.73
2022-10-22T04:25:34.745Z,997.73
2022-10-22T04:26:16.557Z,997.73
2022-10-22T04:26:35.051Z,997.73
2022-10-22T04:27:05.294Z,997.73
2022-10-22T04:27:35.218Z,997.73
2022-10-22T04:27:52.414Z,997.73
2022-10-22T04:28:24.617Z,997.73
2022-10-22T04:28:41.763Z,997.83
2022-10-22T04:29:15.987Z,997.83
2022-10-22T04:29:34.819Z,997.93
2022-10-22T04:30:00.661Z,997.93
2022-10-22T04:30:33.326Z,997.93
2022-10-22T04:31:04.573Z,998.03
2022-10-22T04:31:35.472Z,997.93
2022-10-22T04:32:08.450Z,997.93
2022-10-22T04:32:34.894Z,997.83
2022-10-22T04:32:57.465Z,997.83
2022-10-22T04:33:28.377Z,997.83
2022-10-22T04:34:01.669Z,997.83
2022-10-22T04:34:32.486Z,997.83
2022-10-22T04:35:04.697Z,997.83
2022-10-22T04:35:34.878Z,997.83
2022-10-22T04:35:52.518Z,997.83
2022-10-22T04:36:25.214Z,997.83
2022-10-22T04:36:42.822Z,997.93
2022-10-22T04:37:12.531Z,997.93
2022-10-22T04:37:34.906Z,997.73
2022-10-22T04:38:00.352Z,997.73
2022-10-22T04:38:32.385Z,997.73
2022-10-22T04:39:21.430Z,998.14
2022-10-22T04:39:38.734Z,998.24
2022-10-22T04:40:08.506Z,998.24
2022-10-22T04:40:35.017Z,997.93
2022-10-22T04:40:56.588Z,997.93
2022-10-22T04:41:29.056Z,997.93
2022-10-22T04:42:00.439Z,998.03
2022-10-22T04:42:32.385Z,998.03
2022-10-22T04:43:04.368Z,997.93
2022-10-22T04:43:34.725Z,997.93
2022-10-22T04:43:53.146Z,997.93
2022-10-22T04:44:24.556Z,997.93
2022-10-22T04:44:41.634Z,997.83
2022-10-22T04:45:13.434Z,997.83
2022-10-22T04:45:34.904Z,997.83
2022-10-22T04:46:00.692Z,997.83
2022-10-22T04:46:33.144Z,997.83
2022-10-22T04:47:04.444Z,998.03
2022-10-22T04:47:34.847Z,997.93
2022-10-22T04:47:53.528Z,997.93
2022-10-22T04:48:24.418Z,997.93
2022-10-22T04:48:41.491Z,998.03
2022-10-22T04:49:12.384Z,998.03
2022-10-22T04:49:34.720Z,998.14
2022-10-22T04:50:01.387Z,998.14
2022-10-22T04:50:32.567Z,998.14
2022-10-22T04:51:04.573Z,997.83
2022-10-22T04:51:34.934Z,997.93
2022-10-22T04:51:52.401Z,997.93
2022-10-22T04:52:24.587Z,997.93
2022-10-22T04:52:43.116Z,997.93
2022-10-22T04:53:12.581Z,997.93
2022-10-22T04:53:35.041Z,998.03
2022-10-22T04:54:16.367Z,998.03
2022-10-22T04:54:34.796Z,997.93
2022-10-22T04:55:06.468Z,997.93
2022-10-22T04:55:34.821Z,998.03
2022-10-22T04:55:52.488Z,998.03
2022-10-22T04:56:24.403Z,998.03
2022-10-22T04:56:42.028Z,997.83
2022-10-22T04:57:13.240Z,997.83
2022-10-22T04:57:35.078Z,998.14
2022-10-22T04:58:00.669Z,998.14
2022-10-22T04:58:33.154Z,998.14
2022-10-22T04:59:04.371Z,998.03
2022-10-22T04:59:35.538Z,997.83
2022-10-22T04:59:52.653Z,997.83
2022-10-22T05:00:24.633Z,997.83
2022-10-22T05:00:41.628Z,998.03
2022-10-22T05:01:13.562Z,998.03
2022-10-22T05:01:37.081Z,998.24
2022-10-22T05:02:00.579Z,998.24
2022-10-22T05:02:33.428Z,998.24
2022-10-22T05:03:04.409Z,998.03
2022-10-22T05:03:37.387Z,998.03
2022-10-22T05:04:08.612Z,998.03
2022-10-22T05:04:35.288Z,997.93
2022-10-22T05:04:57.493Z,997.93
2022-10-22T05:05:28.625Z,997.93
2022-10-22T05:06:00.590Z,998.24
2022-10-22T05:06:32.529Z,998.24
2022-10-22T05:07:04.425Z,998.24
2022-10-22T05:07:34.763Z,998.03
2022-10-22T05:07:52.570Z,998.03
2022-10-22T05:08:25.204Z,998.03
2022-10-22T05:08:43.195Z,998.03
2022-10-22T05:09:12.516Z,998.03
2022-10-22T05:09:34.848Z,997.93
2022-10-22T05:10:16.622Z,997.93
2022-10-22T05:10:34.940Z,997.93
2022-10-22T05:11:05.243Z,997.93
2022-10-22T05:11:35.351Z,998.03
2022-10-22T05:11:52.486Z,998.03
2022-10-22T05:12:24.652Z,998.03
2022-10-22T05:12:41.701Z,998.14
2022-10-22T05:13:13.418Z,998.14
2022-10-22T05:13:34.774Z,998.14
2022-10-22T05:14:33.172Z,998.14
2022-10-22T05:15:20.629Z,998.14
2022-10-22T05:15:39.273Z,998.14
2022-10-22T05:16:08.351Z,998.14
2022-10-22T05:16:35.519Z,998.14
2022-10-22T05:16:56.611Z,998.14
2022-10-22T05:17:28.381Z,998.14
2022-10-22T05:18:01.254Z,998.14
2022-10-22T05:18:32.482Z,998.14
2022-10-22T05:19:04.564Z,998.14
2022-10-22T05:19:34.929Z,998.14
2022-10-22T05:19:52.356Z,998.14
2022-10-22T05:20:25.399Z,998.14
2022-10-22T05:20:43.305Z,997.93
2022-10-22T05:21:12.617Z,997.93
2022-10-22T05:21:34.926Z,998.14
2022-10-22T05:22:00.452Z,998.14
2022-10-22T05:22:32.431Z,998.14
2022-10-22T05:23:04.991Z,998.14
2022-10-22T05:23:34.795Z,998.14
2022-10-22T05:23:52.370Z,998.14
2022-10-22T05:24:24.461Z,998.14
2022-10-22T05:24:41.587Z,998.14
2022-10-22T05:25:13.449Z,998.14
2022-10-22T05:25:35.042Z,998.34
2022-10-22T05:26:00.368Z,998.34
2022-10-22T05:26:32.384Z,998.34
2022-10-22T05:27:04.616Z,998.34
2022-10-22T05:27:34.782Z,998.34
2022-10-22T05:27:52.881Z,998.34
2022-10-22T05:28:25.194Z,998.34
2022-10-22T05:28:42.870Z,998.14
2022-10-22T05:29:12.584Z,998.14
2022-10-22T05:29:34.891Z,998.14
2022-10-22T05:30:00.948Z,998.14
2022-10-22T05:30:32.446Z,998.14
2022-10-22T05:31:05.264Z,998.14
2022-10-22T05:31:34.740Z,998.14
2022-10-22T05:31:52.553Z,998.14
2022-10-22T05:32:25.100Z,998.14
2022-10-22T05:32:42.281Z,998.24
2022-10-22T05:33:12.447Z,998.24
2022-10-22T05:33:34.955Z,998.34
2022-10-22T05:34:00.721Z,998.34
2022-10-22T05:34:33.208Z,998.34
2022-10-22T05:35:04.515Z,998.14
2022-10-22T05:35:35.464Z,998.03
2022-10-22T05:35:53.490Z,998.03
2022-10-22T05:36:24.564Z,998.03
2022-10-22T05:36:41.425Z,998.24
2022-10-22T05:37:12.397Z,998.24
2022-10-22T05:37:34.812Z,998.34
2022-10-22T05:38:01.331Z,998.34
2022-10-22T05:38:32.497Z,998.34
2022-10-22T05:39:05.456Z,998.24
2022-10-22T05:39:34.889Z,998.24
2022-10-22T05:40:01.769Z,998.24
2022-10-22T05:40:30.348Z,998.24